createdAt,value
2017-10-23T00:00:11.334Z,11.51
2017-10-23T00:00:37.485Z,11.54
2017-10-23T00:01:03.638Z,11.54
2017-10-23T00:01:29.777Z,11.48
2017-10-23T00:01:55.919Z,11.51
2017-10-23T00:02:22.076Z,11.47
2017-10-23T00:02:48.213Z,11.52
2017-10-23T00:03:14.366Z,11.5
2017-10-23T00:03:40.500Z,11.48
2017-10-23T00:04:06.645Z,11.44
2017-10-23T00:04:32.794Z,11.41
2017-10-23T00:04:58.946Z,11.4
2017-10-23T00:05:25.092Z,11.37
2017-10-23T00:05:51.241Z,11.5
2017-10-23T00:06:17.379Z,11.47
2017-10-23T00:06:43.534Z,11.48
2017-10-23T00:07:09.678Z,11.48
2017-10-23T00:07:35.830Z,11.52
2017-10-23T00:08:01.975Z,11.5
2017-10-23T00:08:28.143Z,11.45
2017-10-23T00:08:54.295Z,11.57
2017-10-23T00:09:20.435Z,11.52
2017-10-23T00:09:46.574Z,11.55
2017-10-23T00:10:12.724Z,11.5
2017-10-23T00:10:38.866Z,11.5
2017-10-23T00:11:05.015Z,11.48
2017-10-23T00:11:31.164Z,11.5
2017-10-23T00:11:57.302Z,11.52
2017-10-23T00:12:23.456Z,11.5
2017-10-23T00:12:49.597Z,11.48
2017-10-23T00:13:15.746Z,11.51
2017-10-23T00:13:41.885Z,11.44
2017-10-23T00:14:08.039Z,11.44
2017-10-23T00:14:34.199Z,11.47
2017-10-23T00:15:00.379Z,11.57
2017-10-23T00:15:26.496Z,11.59
2017-10-23T00:15:52.633Z,11.51
2017-10-23T00:16:18.783Z,11.54
2017-10-23T00:16:44.932Z,11.48
2017-10-23T00:17:11.076Z,11.54
2017-10-23T00:17:37.219Z,11.51
2017-10-23T00:18:03.369Z,11.5
2017-10-23T00:18:29.514Z,11.51
2017-10-23T00:18:55.660Z,11.54
2017-10-23T00:19:21.807Z,11.52
2017-10-23T00:19:47.950Z,11.52
2017-10-23T00:20:14.116Z,11.55
2017-10-23T00:20:40.292Z,11.51
2017-10-23T00:21:06.440Z,11.59
2017-10-23T00:21:32.589Z,11.5
2017-10-23T00:21:58.740Z,11.48
2017-10-23T00:22:24.878Z,11.6
2017-10-23T00:22:51.028Z,11.5
2017-10-23T00:23:17.164Z,11.51
2017-10-23T00:23:43.314Z,11.5
2017-10-23T00:24:09.457Z,11.55
2017-10-23T00:24:35.609Z,11.51
2017-10-23T00:25:01.757Z,11.55
2017-10-23T00:25:27.920Z,11.55
2017-10-23T00:25:54.105Z,11.57
2017-10-23T00:26:20.249Z,11.52
2017-10-23T00:26:46.397Z,11.6
2017-10-23T00:27:12.538Z,11.47
2017-10-23T00:27:38.685Z,11.51
2017-10-23T00:28:04.837Z,11.57
2017-10-23T00:28:30.973Z,11.66
2017-10-23T00:28:57.115Z,11.54
2017-10-23T00:29:23.264Z,11.55
2017-10-23T00:29:49.415Z,11.47
2017-10-23T00:30:15.549Z,11.59
2017-10-23T00:30:41.691Z,11.54
2017-10-23T00:31:07.838Z,11.5
2017-10-23T00:31:33.981Z,11.54
2017-10-23T00:32:00.131Z,11.48
2017-10-23T00:32:26.280Z,11.48
2017-10-23T00:32:52.448Z,11.63
2017-10-23T00:33:18.598Z,11.48
2017-10-23T00:33:44.736Z,11.54
2017-10-23T00:34:10.879Z,11.52
2017-10-23T00:34:37.029Z,11.59
2017-10-23T00:35:03.169Z,11.44
2017-10-23T00:35:29.322Z,11.4
2017-10-23T00:35:55.470Z,11.37
2017-10-23T00:36:21.609Z,11.43
2017-10-23T00:36:47.759Z,11.37
2017-10-23T00:37:13.902Z,11.47
2017-10-23T00:37:40.051Z,11.51
2017-10-23T00:38:06.193Z,11.44
2017-10-23T00:38:32.338Z,11.41
2017-10-23T00:38:58.516Z,11.48
2017-10-23T00:39:24.650Z,11.47
2017-10-23T00:39:50.797Z,11.51
2017-10-23T00:40:16.939Z,11.43
2017-10-23T00:40:43.092Z,11.41
2017-10-23T00:41:09.230Z,11.47
2017-10-23T00:41:35.384Z,11.37
2017-10-23T00:42:01.532Z,11.5
2017-10-23T00:42:27.672Z,11.57
2017-10-23T00:42:53.825Z,11.54
2017-10-23T00:43:19.965Z,11.5
2017-10-23T00:43:46.108Z,11.59
2017-10-23T00:44:12.260Z,11.57
2017-10-23T00:44:38.405Z,11.51
2017-10-23T00:45:04.542Z,11.59
2017-10-23T00:45:30.711Z,11.62
2017-10-23T00:45:56.861Z,11.62
2017-10-23T00:46:23.010Z,11.59
2017-10-23T00:46:49.157Z,11.6
2017-10-23T00:47:15.303Z,11.54
2017-10-23T00:47:41.451Z,11.54
2017-10-23T00:48:07.594Z,11.51
2017-10-23T00:48:33.736Z,11.52
2017-10-23T00:48:59.881Z,11.54
2017-10-23T00:49:26.020Z,11.51
2017-10-23T00:49:52.163Z,11.51
2017-10-23T00:50:18.316Z,11.47
2017-10-23T00:50:44.468Z,11.55
2017-10-23T00:51:10.613Z,11.5
2017-10-23T00:51:36.762Z,11.62
2017-10-23T00:52:02.902Z,11.55
2017-10-23T00:52:29.023Z,11.51
2017-10-23T00:52:55.148Z,11.47
2017-10-23T00:53:21.268Z,11.5
2017-10-23T00:53:47.387Z,11.5
2017-10-23T00:54:13.514Z,11.48
2017-10-23T00:54:39.634Z,11.45
2017-10-23T00:55:05.749Z,11.52
2017-10-23T00:55:31.875Z,11.57
2017-10-23T00:55:57.992Z,11.48
2017-10-23T00:56:24.118Z,11.4
2017-10-23T00:56:50.233Z,11.43
2017-10-23T00:57:16.359Z,11.41
2017-10-23T00:57:42.481Z,11.4
2017-10-23T00:58:08.607Z,11.44
2017-10-23T00:58:34.752Z,11.37
2017-10-23T00:59:00.909Z,11.41
2017-10-23T00:59:27.034Z,11.52
2017-10-23T00:59:53.153Z,11.48
2017-10-23T01:00:19.279Z,11.51
2017-10-23T01:00:45.406Z,11.48
2017-10-23T01:01:11.541Z,11.52
2017-10-23T01:01:37.668Z,11.54
2017-10-23T01:02:03.785Z,11.48
2017-10-23T01:02:29.912Z,11.51
2017-10-23T01:02:56.034Z,11.47
2017-10-23T01:03:22.152Z,11.51
2017-10-23T01:03:48.277Z,11.52
2017-10-23T01:04:14.394Z,11.57
2017-10-23T01:04:40.514Z,11.51
2017-10-23T01:05:06.639Z,11.48
2017-10-23T01:05:32.765Z,11.52
2017-10-23T01:05:58.887Z,11.5
2017-10-23T01:06:24.999Z,11.47
2017-10-23T01:06:51.125Z,11.45
2017-10-23T01:07:17.240Z,11.4
2017-10-23T01:07:43.368Z,11.5
2017-10-23T01:08:09.539Z,11.52
2017-10-23T01:08:35.634Z,11.45
2017-10-23T01:09:01.762Z,11.48
2017-10-23T01:09:27.878Z,11.4
2017-10-23T01:09:54.004Z,11.43
2017-10-23T01:10:20.115Z,11.44
2017-10-23T01:10:46.234Z,11.5
2017-10-23T01:11:12.363Z,11.45
2017-10-23T01:11:38.484Z,11.4
2017-10-23T01:12:04.605Z,11.3
2017-10-23T01:12:30.727Z,11.47
2017-10-23T01:12:56.854Z,11.37
2017-10-23T01:13:22.970Z,11.41
2017-10-23T01:13:49.096Z,11.44
2017-10-23T01:14:15.217Z,11.43
2017-10-23T01:14:41.330Z,11.43
2017-10-23T01:15:07.461Z,11.41
2017-10-23T01:15:33.574Z,11.52
2017-10-23T01:15:59.695Z,11.48
2017-10-23T01:16:25.827Z,11.5
2017-10-23T01:16:51.947Z,11.55
2017-10-23T01:17:18.063Z,11.5
2017-10-23T01:17:44.189Z,11.5
2017-10-23T01:18:10.308Z,11.52
2017-10-23T01:18:36.429Z,11.5
2017-10-23T01:19:02.555Z,11.5
2017-10-23T01:19:28.681Z,11.51
2017-10-23T01:19:54.796Z,11.45
2017-10-23T01:20:20.919Z,11.51
2017-10-23T01:20:47.045Z,11.52
2017-10-23T01:21:13.160Z,11.57
2017-10-23T01:21:39.291Z,11.54
2017-10-23T01:22:05.435Z,11.55
2017-10-23T01:22:31.556Z,11.55
2017-10-23T01:22:57.679Z,11.51
2017-10-23T01:23:23.796Z,11.52
2017-10-23T01:23:49.921Z,11.52
2017-10-23T01:24:16.038Z,11.5
2017-10-23T01:24:42.168Z,11.54
2017-10-23T01:25:08.311Z,11.57
2017-10-23T01:25:34.426Z,11.51
2017-10-23T01:26:00.552Z,11.48
2017-10-23T01:26:26.676Z,11.5
2017-10-23T01:26:52.796Z,11.5
2017-10-23T01:27:18.925Z,11.47
2017-10-23T01:27:45.042Z,11.51
2017-10-23T01:28:11.158Z,11.59
2017-10-23T01:28:37.285Z,11.48
2017-10-23T01:29:03.403Z,11.52
2017-10-23T01:29:29.549Z,11.47
2017-10-23T01:29:55.671Z,11.52
2017-10-23T01:30:21.789Z,11.5
2017-10-23T01:30:47.916Z,11.66
2017-10-23T01:31:14.035Z,11.62
2017-10-23T01:31:40.155Z,11.55
2017-10-23T01:32:06.281Z,11.6
2017-10-23T01:32:32.405Z,11.47
2017-10-23T01:32:58.544Z,11.41
2017-10-23T01:33:24.642Z,11.41
2017-10-23T01:33:50.776Z,11.43
2017-10-23T01:34:16.891Z,11.5
2017-10-23T01:34:43.008Z,11.45
2017-10-23T01:35:09.128Z,11.5
2017-10-23T01:35:35.254Z,11.6
2017-10-23T01:36:01.401Z,11.5
2017-10-23T01:36:27.494Z,11.48
2017-10-23T01:36:53.619Z,11.5
2017-10-23T01:37:19.736Z,11.51
2017-10-23T01:37:45.864Z,11.5
2017-10-23T01:38:11.991Z,11.47
2017-10-23T01:38:38.112Z,11.51
2017-10-23T01:39:04.235Z,11.52
2017-10-23T01:39:30.381Z,11.5
2017-10-23T01:39:56.502Z,11.51
2017-10-23T01:40:22.627Z,11.51
2017-10-23T01:40:48.768Z,11.54
2017-10-23T01:41:14.913Z,11.62
2017-10-23T01:41:41.038Z,11.63
2017-10-23T01:42:07.171Z,11.48
2017-10-23T01:42:33.292Z,11.44
2017-10-23T01:42:59.415Z,11.5
2017-10-23T01:43:25.541Z,11.4
2017-10-23T01:43:51.680Z,11.47
2017-10-23T01:44:17.797Z,11.5
2017-10-23T01:44:43.927Z,11.54
2017-10-23T01:45:10.050Z,11.48
2017-10-23T01:45:36.166Z,11.37
2017-10-23T01:46:02.294Z,11.4
2017-10-23T01:46:28.418Z,11.4
2017-10-23T01:46:54.536Z,11.44
2017-10-23T01:47:20.662Z,11.4
2017-10-23T01:47:46.773Z,11.37
2017-10-23T01:48:12.894Z,11.44
2017-10-23T01:48:39.022Z,11.33
2017-10-23T01:49:05.141Z,11.35
2017-10-23T01:49:31.262Z,11.37
2017-10-23T01:49:57.383Z,11.43
2017-10-23T01:50:23.505Z,11.44
2017-10-23T01:50:49.631Z,11.37
2017-10-23T01:51:15.748Z,11.41
2017-10-23T01:51:41.874Z,11.41
2017-10-23T01:52:07.990Z,11.43
2017-10-23T01:52:34.137Z,11.41
2017-10-23T01:53:00.278Z,11.52
2017-10-23T01:53:26.399Z,11.5
2017-10-23T01:53:52.516Z,11.54
2017-10-23T01:54:18.634Z,11.6
2017-10-23T01:54:44.761Z,11.48
2017-10-23T01:55:10.886Z,11.51
2017-10-23T01:55:37.006Z,11.52
2017-10-23T01:56:03.132Z,11.52
2017-10-23T01:56:29.250Z,11.51
2017-10-23T01:56:55.373Z,11.54
2017-10-23T01:57:21.488Z,11.5
2017-10-23T01:57:47.611Z,11.55
2017-10-23T01:58:13.736Z,11.47
2017-10-23T01:58:39.855Z,11.5
2017-10-23T01:59:05.972Z,11.51
2017-10-23T01:59:32.094Z,11.5
2017-10-23T01:59:58.219Z,11.52
2017-10-23T02:00:24.356Z,11.5
2017-10-23T02:00:50.499Z,11.37
2017-10-23T02:01:16.632Z,11.37
2017-10-23T02:01:42.734Z,11.5
2017-10-23T02:02:08.853Z,11.47
2017-10-23T02:02:34.979Z,11.48
2017-10-23T02:03:01.095Z,11.63
2017-10-23T02:03:27.218Z,11.54
2017-10-23T02:03:53.337Z,11.52
2017-10-23T02:04:19.474Z,11.5
2017-10-23T02:04:45.584Z,11.51
2017-10-23T02:05:11.708Z,11.5
2017-10-23T02:05:37.832Z,11.48
2017-10-23T02:06:03.958Z,11.52
2017-10-23T02:06:30.076Z,11.5
2017-10-23T02:06:56.195Z,11.48
2017-10-23T02:07:22.315Z,11.48
2017-10-23T02:07:48.435Z,11.44
2017-10-23T02:08:14.554Z,11.51
2017-10-23T02:08:40.679Z,11.54
2017-10-23T02:09:06.806Z,11.52
2017-10-23T02:09:32.922Z,11.5
2017-10-23T02:09:59.046Z,11.48
2017-10-23T02:10:25.165Z,11.52
2017-10-23T02:10:51.293Z,11.48
2017-10-23T02:11:17.417Z,11.51
2017-10-23T02:11:43.538Z,11.54
2017-10-23T02:12:09.664Z,11.47
2017-10-23T02:12:35.790Z,11.41
2017-10-23T02:13:01.907Z,11.45
2017-10-23T02:13:28.024Z,11.43
2017-10-23T02:13:54.151Z,11.45
2017-10-23T02:14:20.269Z,11.4
2017-10-23T02:14:46.392Z,11.41
2017-10-23T02:15:12.524Z,11.4
2017-10-23T02:15:38.646Z,11.44
2017-10-23T02:16:04.764Z,11.33
2017-10-23T02:16:30.882Z,11.45
2017-10-23T02:16:57.002Z,11.5
2017-10-23T02:17:23.128Z,11.52
2017-10-23T02:17:49.252Z,11.54
2017-10-23T02:18:15.373Z,11.57
2017-10-23T02:18:41.489Z,11.6
2017-10-23T02:19:07.615Z,11.62
2017-10-23T02:19:33.744Z,11.5
2017-10-23T02:19:59.856Z,11.6
2017-10-23T02:20:25.986Z,11.52
2017-10-23T02:20:52.107Z,11.55
2017-10-23T02:21:18.220Z,11.59
2017-10-23T02:21:44.348Z,11.6
2017-10-23T02:22:10.474Z,11.57
2017-10-23T02:22:36.613Z,11.51
2017-10-23T02:23:02.732Z,11.63
2017-10-23T02:23:28.854Z,11.59
2017-10-23T02:23:54.971Z,11.5
2017-10-23T02:24:21.110Z,11.45
2017-10-23T02:24:47.223Z,11.5
2017-10-23T02:25:13.342Z,11.52
2017-10-23T02:25:39.462Z,11.59
2017-10-23T02:26:05.585Z,11.5
2017-10-23T02:26:31.700Z,11.5
2017-10-23T02:26:57.826Z,11.47
2017-10-23T02:27:23.940Z,11.5
2017-10-23T02:27:50.094Z,11.47
2017-10-23T02:28:16.217Z,11.47
2017-10-23T02:28:42.330Z,11.43
2017-10-23T02:29:08.458Z,11.45
2017-10-23T02:29:34.575Z,11.35
2017-10-23T02:30:00.707Z,11.48
2017-10-23T02:30:26.851Z,11.63
2017-10-23T02:30:52.985Z,11.59
2017-10-23T02:31:19.115Z,11.47
2017-10-23T02:31:45.225Z,11.5
2017-10-23T02:32:11.343Z,11.57
2017-10-23T02:32:37.464Z,11.6
2017-10-23T02:33:03.611Z,11.55
2017-10-23T02:33:29.729Z,11.5
2017-10-23T02:33:55.880Z,11.44
2017-10-23T02:34:22.003Z,11.44
2017-10-23T02:34:48.124Z,11.5
2017-10-23T02:35:14.241Z,11.51
2017-10-23T02:35:40.362Z,11.51
2017-10-23T02:36:06.492Z,11.48
2017-10-23T02:36:32.607Z,11.45
2017-10-23T02:36:58.733Z,11.48
2017-10-23T02:37:24.850Z,11.43
2017-10-23T02:37:50.978Z,11.45
2017-10-23T02:38:17.097Z,11.37
2017-10-23T02:38:43.212Z,11.52
2017-10-23T02:39:09.335Z,11.5
2017-10-23T02:39:35.461Z,11.48
2017-10-23T02:40:01.583Z,11.45
2017-10-23T02:40:27.709Z,11.41
2017-10-23T02:40:53.820Z,11.54
2017-10-23T02:41:19.943Z,11.51
2017-10-23T02:41:46.068Z,11.48
2017-10-23T02:42:12.210Z,11.54
2017-10-23T02:42:38.331Z,11.51
2017-10-23T02:43:04.450Z,11.52
2017-10-23T02:43:30.576Z,11.51
2017-10-23T02:43:56.695Z,11.5
2017-10-23T02:44:22.848Z,11.54
2017-10-23T02:44:48.999Z,11.45
2017-10-23T02:45:15.122Z,11.51
2017-10-23T02:45:41.241Z,11.57
2017-10-23T02:46:07.362Z,11.52
2017-10-23T02:46:33.482Z,11.54
2017-10-23T02:46:59.605Z,11.51
2017-10-23T02:47:25.738Z,11.47
2017-10-23T02:47:51.857Z,11.48
2017-10-23T02:48:17.977Z,11.59
2017-10-23T02:48:44.096Z,11.55
2017-10-23T02:49:10.214Z,11.5
2017-10-23T02:49:36.348Z,11.51
2017-10-23T02:50:02.485Z,11.59
2017-10-23T02:50:28.610Z,11.59
2017-10-23T02:50:54.723Z,11.47
2017-10-23T02:51:20.876Z,11.51
2017-10-23T02:51:47.003Z,11.51
2017-10-23T02:52:13.124Z,11.47
2017-10-23T02:52:39.250Z,11.47
2017-10-23T02:53:05.370Z,11.47
2017-10-23T02:53:31.491Z,11.44
2017-10-23T02:53:57.619Z,11.37
2017-10-23T02:54:23.739Z,11.4
2017-10-23T02:54:49.856Z,11.37
2017-10-23T02:55:16.006Z,11.44
2017-10-23T02:55:42.124Z,11.37
2017-10-23T02:56:08.251Z,11.44
2017-10-23T02:56:34.391Z,11.45
2017-10-23T02:57:00.506Z,11.4
2017-10-23T02:57:26.631Z,11.41
2017-10-23T02:57:52.755Z,11.44
2017-10-23T02:58:18.876Z,11.4
2017-10-23T02:58:44.997Z,11.45
2017-10-23T02:59:11.124Z,11.47
2017-10-23T02:59:37.264Z,11.52
2017-10-23T03:00:03.386Z,11.48
2017-10-23T03:00:29.510Z,11.54
2017-10-23T03:00:55.624Z,11.48
2017-10-23T03:01:21.757Z,11.48
2017-10-23T03:01:47.892Z,11.48
2017-10-23T03:02:14.011Z,11.44
2017-10-23T03:02:40.136Z,11.44
2017-10-23T03:03:06.255Z,11.44
2017-10-23T03:03:32.381Z,11.44
2017-10-23T03:03:58.498Z,11.44
2017-10-23T03:04:24.623Z,11.37
2017-10-23T03:04:50.746Z,11.5
2017-10-23T03:05:16.882Z,11.48
2017-10-23T03:05:43.001Z,11.35
2017-10-23T03:06:09.131Z,11.43
2017-10-23T03:06:35.268Z,11.5
2017-10-23T03:07:01.413Z,11.45
2017-10-23T03:07:27.541Z,11.5
2017-10-23T03:07:53.662Z,11.5
2017-10-23T03:08:19.786Z,11.45
2017-10-23T03:08:45.911Z,11.44
2017-10-23T03:09:12.023Z,11.44
2017-10-23T03:09:38.150Z,11.41
2017-10-23T03:10:04.271Z,11.41
2017-10-23T03:10:30.394Z,11.45
2017-10-23T03:10:56.519Z,11.45
2017-10-23T03:11:22.638Z,11.43
2017-10-23T03:11:48.758Z,11.41
2017-10-23T03:12:14.873Z,11.43
2017-10-23T03:12:41.000Z,11.41
2017-10-23T03:13:07.114Z,11.36
2017-10-23T03:13:33.241Z,11.41
2017-10-23T03:13:59.364Z,11.41
2017-10-23T03:14:25.505Z,11.44
2017-10-23T03:14:51.625Z,11.41
2017-10-23T03:15:17.741Z,11.44
2017-10-23T03:15:43.886Z,11.35
2017-10-23T03:16:10.001Z,11.36
2017-10-23T03:16:36.123Z,11.37
2017-10-23T03:17:02.261Z,11.33
2017-10-23T03:17:28.379Z,11.26
2017-10-23T03:17:54.503Z,11.27
2017-10-23T03:18:20.618Z,11.4
2017-10-23T03:18:46.746Z,11.32
2017-10-23T03:19:12.863Z,11.36
2017-10-23T03:19:38.983Z,11.32
2017-10-23T03:20:05.112Z,11.41
2017-10-23T03:20:31.229Z,11.44
2017-10-23T03:20:57.351Z,11.36
2017-10-23T03:21:23.472Z,11.4
2017-10-23T03:21:49.598Z,11.36
2017-10-23T03:22:15.718Z,11.36
2017-10-23T03:22:41.845Z,11.41
2017-10-23T03:23:07.969Z,11.41
2017-10-23T03:23:34.089Z,11.37
2017-10-23T03:24:00.210Z,11.41
2017-10-23T03:24:26.331Z,11.43
2017-10-23T03:24:52.447Z,11.44
2017-10-23T03:25:18.574Z,11.36
2017-10-23T03:25:44.692Z,11.43
2017-10-23T03:26:10.814Z,11.44
2017-10-23T03:26:36.950Z,11.4
2017-10-23T03:27:03.061Z,11.4
2017-10-23T03:27:29.177Z,11.3
2017-10-23T03:27:55.318Z,11.41
2017-10-23T03:28:21.446Z,11.3
2017-10-23T03:28:47.571Z,11.35
2017-10-23T03:29:13.695Z,11.4
2017-10-23T03:29:39.812Z,11.35
2017-10-23T03:30:05.928Z,11.4
2017-10-23T03:30:32.069Z,11.33
2017-10-23T03:30:58.189Z,11.43
2017-10-23T03:31:24.315Z,11.36
2017-10-23T03:31:50.446Z,11.4
2017-10-23T03:32:16.589Z,11.44
2017-10-23T03:32:42.712Z,11.5
2017-10-23T03:33:08.830Z,11.51
2017-10-23T03:33:34.947Z,11.48
2017-10-23T03:34:01.076Z,11.54
2017-10-23T03:34:27.197Z,11.5
2017-10-23T03:34:53.317Z,11.48
2017-10-23T03:35:19.433Z,11.5
2017-10-23T03:35:45.575Z,11.41
2017-10-23T03:36:11.697Z,11.44
2017-10-23T03:36:37.819Z,11.41
2017-10-23T03:37:03.933Z,11.43
2017-10-23T03:37:30.054Z,11.33
2017-10-23T03:37:56.182Z,11.36
2017-10-23T03:38:22.309Z,11.33
2017-10-23T03:38:48.424Z,11.41
2017-10-23T03:39:14.552Z,11.35
2017-10-23T03:39:40.671Z,11.41
2017-10-23T03:40:06.818Z,11.41
2017-10-23T03:40:32.941Z,11.5
2017-10-23T03:40:59.062Z,11.32
2017-10-23T03:41:25.176Z,11.43
2017-10-23T03:41:51.306Z,11.37
2017-10-23T03:42:17.447Z,11.4
2017-10-23T03:42:43.572Z,11.41
2017-10-23T03:43:09.695Z,11.33
2017-10-23T03:43:35.811Z,11.44
2017-10-23T03:44:01.931Z,11.43
2017-10-23T03:44:28.057Z,11.37
2017-10-23T03:44:54.178Z,11.33
2017-10-23T03:45:20.320Z,11.35
2017-10-23T03:45:46.466Z,11.4
2017-10-23T03:46:12.582Z,11.33
2017-10-23T03:46:38.701Z,11.32
2017-10-23T03:47:04.827Z,11.4
2017-10-23T03:47:30.945Z,11.37
2017-10-23T03:47:57.072Z,11.33
2017-10-23T03:48:23.196Z,11.33
2017-10-23T03:48:49.317Z,11.37
2017-10-23T03:49:15.433Z,11.35
2017-10-23T03:49:41.566Z,11.36
2017-10-23T03:50:07.685Z,11.37
2017-10-23T03:50:33.800Z,11.36
2017-10-23T03:50:59.929Z,11.4
2017-10-23T03:51:26.048Z,11.37
2017-10-23T03:51:52.164Z,11.41
2017-10-23T03:52:18.291Z,11.35
2017-10-23T03:52:44.407Z,11.36
2017-10-23T03:53:10.537Z,11.37
2017-10-23T03:53:36.656Z,11.37
2017-10-23T03:54:02.782Z,11.41
2017-10-23T03:54:28.896Z,11.4
2017-10-23T03:54:55.022Z,11.41
2017-10-23T03:55:21.142Z,11.48
2017-10-23T03:55:47.275Z,11.54
2017-10-23T03:56:13.391Z,11.5
2017-10-23T03:56:39.508Z,11.37
2017-10-23T03:57:05.628Z,11.4
2017-10-23T03:57:31.768Z,11.41
2017-10-23T03:57:57.865Z,11.36
2017-10-23T03:58:23.994Z,11.37
2017-10-23T03:58:50.116Z,11.5
2017-10-23T03:59:16.238Z,11.52
2017-10-23T03:59:42.356Z,11.59
2017-10-23T04:00:08.533Z,11.52
2017-10-23T04:00:34.600Z,11.47
2017-10-23T04:01:00.729Z,11.41
2017-10-23T04:01:26.865Z,11.47
2017-10-23T04:01:52.983Z,11.48
2017-10-23T04:02:19.112Z,11.52
2017-10-23T04:02:45.258Z,11.48
2017-10-23T04:03:11.378Z,11.57
2017-10-23T04:03:37.505Z,11.54
2017-10-23T04:04:03.629Z,11.54
2017-10-23T04:04:29.747Z,11.59
2017-10-23T04:04:55.875Z,11.48
2017-10-23T04:05:21.994Z,11.54
2017-10-23T04:05:48.111Z,11.54
2017-10-23T04:06:14.237Z,11.6
2017-10-23T04:06:40.355Z,11.54
2017-10-23T04:07:06.481Z,11.57
2017-10-23T04:07:32.604Z,11.51
2017-10-23T04:07:58.749Z,11.55
2017-10-23T04:08:24.870Z,11.51
2017-10-23T04:08:50.988Z,11.6
2017-10-23T04:09:17.130Z,11.57
2017-10-23T04:09:43.265Z,11.55
2017-10-23T04:10:09.394Z,11.5
2017-10-23T04:10:35.513Z,11.47
2017-10-23T04:11:01.641Z,11.5
2017-10-23T04:11:27.755Z,11.51
2017-10-23T04:11:53.875Z,11.45
2017-10-23T04:12:20.001Z,11.63
2017-10-23T04:12:46.118Z,11.51
2017-10-23T04:13:12.240Z,11.51
2017-10-23T04:13:38.358Z,11.51
2017-10-23T04:14:04.509Z,11.6
2017-10-23T04:14:30.625Z,11.62
2017-10-23T04:14:56.750Z,11.54
2017-10-23T04:15:22.867Z,11.68
2017-10-23T04:15:48.985Z,11.6
2017-10-23T04:16:15.115Z,11.55
2017-10-23T04:16:41.232Z,11.63
2017-10-23T04:17:07.359Z,11.54
2017-10-23T04:17:33.514Z,11.62
2017-10-23T04:17:59.607Z,11.5
2017-10-23T04:18:25.725Z,11.51
2017-10-23T04:18:51.846Z,11.5
2017-10-23T04:19:17.966Z,11.48
2017-10-23T04:19:44.109Z,11.57
2017-10-23T04:20:10.230Z,11.52
2017-10-23T04:20:36.354Z,11.59
2017-10-23T04:21:02.465Z,11.62
2017-10-23T04:21:28.598Z,11.62
2017-10-23T04:21:54.713Z,11.51
2017-10-23T04:22:20.831Z,11.54
2017-10-23T04:22:46.955Z,11.62
2017-10-23T04:23:13.070Z,11.62
2017-10-23T04:23:39.201Z,11.63
2017-10-23T04:24:05.350Z,11.6
2017-10-23T04:24:31.466Z,11.6
2017-10-23T04:24:57.592Z,11.62
2017-10-23T04:25:23.711Z,11.69
2017-10-23T04:25:49.861Z,11.63
2017-10-23T04:26:15.982Z,11.6
2017-10-23T04:26:42.100Z,11.62
2017-10-23T04:27:08.224Z,11.62
2017-10-23T04:27:34.363Z,11.54
2017-10-23T04:28:00.463Z,11.57
2017-10-23T04:28:26.593Z,11.62
2017-10-23T04:28:52.709Z,11.63
2017-10-23T04:29:18.829Z,11.68
2017-10-23T04:29:44.969Z,11.62
2017-10-23T04:30:11.115Z,11.62
2017-10-23T04:30:37.242Z,11.63
2017-10-23T04:31:03.359Z,11.62
2017-10-23T04:31:29.478Z,11.5
2017-10-23T04:31:55.595Z,11.52
2017-10-23T04:32:21.720Z,11.51
2017-10-23T04:32:47.850Z,11.51
2017-10-23T04:33:13.973Z,11.47
2017-10-23T04:33:40.099Z,11.6
2017-10-23T04:34:06.209Z,11.6
2017-10-23T04:34:32.335Z,11.57
2017-10-23T04:34:58.478Z,11.57
2017-10-23T04:35:24.595Z,11.6
2017-10-23T04:35:50.715Z,11.6
2017-10-23T04:36:16.863Z,11.57
2017-10-23T04:36:42.980Z,11.51
2017-10-23T04:37:09.106Z,11.5
2017-10-23T04:37:35.223Z,11.6
2017-10-23T04:38:01.347Z,11.5
2017-10-23T04:38:27.473Z,11.51
2017-10-23T04:38:53.588Z,11.57
2017-10-23T04:39:19.714Z,11.57
2017-10-23T04:39:45.838Z,11.52
2017-10-23T04:40:11.957Z,11.54
2017-10-23T04:40:38.081Z,11.55
2017-10-23T04:41:04.202Z,11.57
2017-10-23T04:41:30.324Z,11.6
2017-10-23T04:41:56.463Z,11.55
2017-10-23T04:42:22.589Z,11.63
2017-10-23T04:42:48.705Z,11.51
2017-10-23T04:43:14.833Z,11.57
2017-10-23T04:43:40.958Z,11.51
2017-10-23T04:44:07.077Z,11.54
2017-10-23T04:44:33.199Z,11.54
2017-10-23T04:44:59.336Z,11.55
2017-10-23T04:45:25.464Z,11.6
2017-10-23T04:45:51.588Z,11.5
2017-10-23T04:46:17.705Z,11.59
2017-10-23T04:46:43.825Z,11.59
2017-10-23T04:47:09.949Z,11.54
2017-10-23T04:47:36.070Z,11.54
2017-10-23T04:48:02.193Z,11.51
2017-10-23T04:48:28.307Z,11.55
2017-10-23T04:48:54.432Z,11.51
2017-10-23T04:49:20.578Z,11.57
2017-10-23T04:49:46.700Z,11.47
2017-10-23T04:50:12.826Z,11.52
2017-10-23T04:50:38.949Z,11.5
2017-10-23T04:51:05.069Z,11.57
2017-10-23T04:51:31.188Z,11.57
2017-10-23T04:51:57.312Z,11.62
2017-10-23T04:52:23.435Z,11.7
2017-10-23T04:52:49.562Z,11.69
2017-10-23T04:53:15.676Z,11.62
2017-10-23T04:53:41.805Z,11.59
2017-10-23T04:54:07.925Z,11.63
2017-10-23T04:54:34.045Z,11.68
2017-10-23T04:55:00.165Z,11.69
2017-10-23T04:55:26.288Z,11.72
2017-10-23T04:55:52.409Z,11.65
2017-10-23T04:56:18.535Z,11.66
2017-10-23T04:56:44.657Z,11.63
2017-10-23T04:57:10.776Z,11.66
2017-10-23T04:57:36.897Z,11.6
2017-10-23T04:58:03.034Z,11.6
2017-10-23T04:58:29.156Z,11.54
2017-10-23T04:58:55.278Z,11.65
2017-10-23T04:59:21.404Z,11.5
2017-10-23T04:59:47.527Z,11.57
2017-10-23T05:00:13.645Z,11.59
2017-10-23T05:00:39.781Z,11.59
2017-10-23T05:01:05.903Z,11.6
2017-10-23T05:01:32.024Z,11.59
2017-10-23T05:01:58.147Z,11.59
2017-10-23T05:02:24.272Z,11.6
2017-10-23T05:02:50.407Z,11.48
2017-10-23T05:03:16.533Z,11.5
2017-10-23T05:03:42.648Z,11.55
2017-10-23T05:04:08.768Z,11.62
2017-10-23T05:04:34.894Z,11.65
2017-10-23T05:05:01.039Z,11.59
2017-10-23T05:05:27.155Z,11.57
2017-10-23T05:05:53.281Z,11.6
2017-10-23T05:06:19.400Z,11.55
2017-10-23T05:06:45.521Z,11.59
2017-10-23T05:07:11.646Z,11.66
2017-10-23T05:07:37.769Z,11.62
2017-10-23T05:08:03.886Z,11.62
2017-10-23T05:08:30.012Z,11.62
2017-10-23T05:08:56.136Z,11.63
2017-10-23T05:09:22.269Z,11.57
2017-10-23T05:09:48.395Z,11.65
2017-10-23T05:10:14.516Z,11.59
2017-10-23T05:10:40.646Z,11.62
2017-10-23T05:11:06.762Z,11.62
2017-10-23T05:11:32.885Z,11.62
2017-10-23T05:11:59.011Z,11.69
2017-10-23T05:12:25.129Z,11.69
2017-10-23T05:12:51.245Z,11.6
2017-10-23T05:13:17.373Z,11.75
2017-10-23T05:13:43.488Z,11.7
2017-10-23T05:14:09.638Z,11.73
2017-10-23T05:14:35.738Z,11.65
2017-10-23T05:15:01.878Z,11.69
2017-10-23T05:15:28.000Z,11.63
2017-10-23T05:15:54.127Z,11.65
2017-10-23T05:16:20.245Z,11.62
2017-10-23T05:16:46.373Z,11.6
2017-10-23T05:17:12.497Z,11.68
2017-10-23T05:17:38.613Z,11.69
2017-10-23T05:18:04.739Z,11.7
2017-10-23T05:18:30.891Z,11.65
2017-10-23T05:18:57.019Z,11.68
2017-10-23T05:19:23.124Z,11.66
2017-10-23T05:19:49.246Z,11.63
2017-10-23T05:20:15.365Z,11.69
2017-10-23T05:20:41.486Z,11.68
2017-10-23T05:21:07.633Z,11.6
2017-10-23T05:21:33.760Z,11.59
2017-10-23T05:21:59.878Z,11.68
2017-10-23T05:22:26.005Z,11.63
2017-10-23T05:22:52.123Z,11.62
2017-10-23T05:23:18.240Z,11.69
2017-10-23T05:23:44.367Z,11.72
2017-10-23T05:24:10.499Z,11.68
2017-10-23T05:24:36.613Z,11.75
2017-10-23T05:25:02.752Z,11.7
2017-10-23T05:25:28.878Z,11.65
2017-10-23T05:25:54.998Z,11.66
2017-10-23T05:26:21.122Z,11.69
2017-10-23T05:26:47.245Z,11.66
2017-10-23T05:27:13.363Z,11.66
2017-10-23T05:27:39.489Z,11.69
2017-10-23T05:28:05.606Z,11.68
2017-10-23T05:28:31.726Z,11.72
2017-10-23T05:28:57.849Z,11.69
2017-10-23T05:29:23.974Z,11.73
2017-10-23T05:29:50.366Z,11.54
2017-10-23T05:30:16.488Z,11.52
2017-10-23T05:30:42.614Z,11.57
2017-10-23T05:31:08.730Z,11.57
2017-10-23T05:31:34.860Z,11.57
2017-10-23T05:32:00.975Z,11.6
2017-10-23T05:32:27.102Z,11.62
2017-10-23T05:32:53.223Z,11.63
2017-10-23T05:33:19.340Z,11.63
2017-10-23T05:33:45.464Z,11.63
2017-10-23T05:34:11.583Z,11.51
2017-10-23T05:34:37.704Z,11.6
2017-10-23T05:35:03.828Z,11.54
2017-10-23T05:35:29.946Z,11.48
2017-10-23T05:35:56.072Z,11.63
2017-10-23T05:36:22.196Z,11.63
2017-10-23T05:36:48.313Z,11.66
2017-10-23T05:37:14.434Z,11.63
2017-10-23T05:37:40.568Z,11.59
2017-10-23T05:38:06.699Z,11.6
2017-10-23T05:38:32.808Z,11.63